Time;durP1;ratioP1;P1;durP2;ratioP2;P2;SDS_P1;SDS_P2;PMS_P1;PMS_P2;Temp;Humidity;BMP_temperature;BMP_pressure;BME280_temperature;BME280_humidity;BME280_pressure;Samples;Min_cycle;Max_cycle;Signal;HPM_P1;HPM_P2
2022/08/12 00:44:41;;;;;;;8.50;6.38;;;18.30;99.90;;;;;;5130894;27;20124;-68
2022/08/12 00:47:08;;;;;;;11.00;6.43;;;18.30;99.90;;;;;;5107143;27;20058;-67
2022/08/12 00:49:34;;;;;;;12.57;6.43;;;18.20;99.90;;;;;;5115794;27;20054;-70
2022/08/12 00:52:05;;;;;;;7.90;5.97;;;18.20;99.90;;;;;;5122470;27;20051;-69
2022/08/12 00:54:38;;;;;;;7.97;6.18;;;18.20;99.90;;;;;;5111352;28;20052;-68
2022/08/12 00:57:08;;;;;;;9.07;5.97;;;18.10;99.90;;;;;;5094981;28;20514;-67
2022/08/12 00:59:36;;;;;;;9.10;6.35;;;18.10;99.90;;;;;;5132444;27;20080;-69
2022/08/12 01:02:04;;;;;;;6.47;5.82;;;18.10;99.90;;;;;;5132809;27;20035;-68
2022/08/12 01:12:46;;;;;;;9.18;6.03;;;18.00;99.90;;;;;;5105919;28;20418;-68
2022/08/12 01:15:12;;;;;;;8.98;5.97;;;17.90;99.90;;;;;;5101270;28;20074;-68
2022/08/12 01:17:43;;;;;;;10.40;6.22;;;18.00;99.90;;;;;;5088569;28;20071;-68
2022/08/12 01:20:16;;;;;;;9.50;6.03;;;18.00;99.90;;;;;;5117244;27;20119;-68
2022/08/12 01:23:23;;;;;;;8.90;5.90;;;17.90;99.90;;;;;;5106948;27;20047;-68
2022/08/12 01:25:52;;;;;;;9.00;6.20;;;17.90;99.90;;;;;;5110960;28;20079;-68
2022/08/12 01:28:19;;;;;;;9.93;6.05;;;17.90;99.90;;;;;;5102124;27;20048;-68
2022/08/12 01:30:48;;;;;;;7.22;5.90;;;17.90;99.90;;;;;;5101092;28;20036;-67
2022/08/12 01:33:16;;;;;;;8.07;5.93;;;17.80;99.90;;;;;;5092112;28;20096;-67
2022/08/12 01:35:53;;;;;;;8.55;6.05;;;17.70;99.90;;;;;;5107352;28;20091;-68
2022/08/12 01:38:21;;;;;;;8.45;6.25;;;17.70;99.90;;;;;;5076484;28;20044;-67
2022/08/12 01:40:47;;;;;;;7.90;6.03;;;17.70;99.90;;;;;;5103144;28;20116;-68
2022/08/12 01:43:20;;;;;;;7.20;6.28;;;17.70;99.90;;;;;;5104101;28;20040;-67
2022/08/12 01:45:59;;;;;;;9.13;6.63;;;17.70;99.90;;;;;;5090148;28;20044;-68
2022/08/12 01:48:52;;;;;;;9.68;6.45;;;17.70;99.90;;;;;;5082064;28;20040;-68
2022/08/12 01:51:39;;;;;;;8.27;5.85;;;17.70;99.90;;;;;;5110522;28;20055;-67
2022/08/12 01:54:16;;;;;;;8.27;6.18;;;17.70;99.90;;;;;;5108967;28;20112;-68
2022/08/12 01:56:57;;;;;;;9.65;6.45;;;17.70;99.90;;;;;;5096334;28;20485;-68
2022/08/12 01:59:49;;;;;;;8.85;6.50;;;17.60;99.90;;;;;;5091950;28;20048;-68
2022/08/12 02:02:17;;;;;;;;;;;17.70;99.90;;;;;;5093378;27;20048;-67
2022/08/12 02:11:31;;;;;;;7.03;6.30;;;17.50;99.90;;;;;;5129702;27;20132;-68
2022/08/12 02:14:27;;;;;;;11.38;7.38;;;17.50;99.90;;;;;;5095607;27;20039;-68
2022/08/12 02:16:53;;;;;;;11.30;6.80;;;17.40;99.90;;;;;;5076000;28;20064;-67
2022/08/12 02:19:26;;;;;;;9.65;6.95;;;17.30;99.90;;;;;;5118240;27;20100;-68
2022/08/12 02:22:08;;;;;;;9.93;7.10;;;17.40;99.90;;;;;;5131715;27;20130;-67
2022/08/12 02:24:37;;;;;;;8.70;6.68;;;17.30;99.90;;;;;;5125857;27;20035;-67
2022/08/12 02:27:07;;;;;;;9.50;6.78;;;17.30;99.90;;;;;;5101207;27;20047;-67
2022/08/12 02:29:34;;;;;;;10.02;6.30;;;17.30;99.90;;;;;;5130315;27;20043;-67
2022/08/12 02:32:01;;;;;;;16.33;7.65;;;17.20;99.90;;;;;;5121854;27;20079;-66
2022/08/12 02:34:28;;;;;;;10.63;6.68;;;17.20;99.90;;;;;;5111793;28;20061;-67
2022/08/12 02:36:56;;;;;;;10.40;7.25;;;17.20;99.90;;;;;;5094424;28;20048;-67
2022/08/12 02:39:27;;;;;;;9.65;6.82;;;17.10;99.90;;;;;;5092470;28;20491;-67
2022/08/12 02:41:56;;;;;;;7.68;6.75;;;17.10;99.90;;;;;;5109277;28;20122;-67
2022/08/12 02:44:24;;;;;;;9.88;6.90;;;17.00;99.90;;;;;;5126724;27;20051;-67
2022/08/12 02:46:55;;;;;;;9.43;6.30;;;17.00;99.90;;;;;;5108418;27;20979;-67
2022/08/12 02:49:29;;;;;;;8.93;6.07;;;17.10;99.90;;;;;;5124995;28;20075;-67
2022/08/12 02:51:55;;;;;;;11.65;6.63;;;17.00;99.90;;;;;;5131444;28;20092;-67
2022/08/12 02:54:22;;;;;;;7.57;6.35;;;17.00;99.90;;;;;;5128647;28;20557;-67
2022/08/12 02:56:48;;;;;;;9.20;6.93;;;17.00;99.90;;;;;;5110806;28;20487;-67
2022/08/12 02:59:15;;;;;;;7.90;6.45;;;17.00;99.90;;;;;;5112575;27;20195;-67
2022/08/12 03:01:49;;;;;;;9.13;6.68;;;17.00;99.90;;;;;;5131057;27;20039;-67
2022/08/12 03:04:43;;;;;;;11.00;6.80;;;17.00;99.90;;;;;;5124782;27;20127;-67
2022/08/12 03:07:35;;;;;;;10.98;7.25;;;17.00;99.90;;;;;;5094294;28;20051;-67
2022/08/12 03:10:10;;;;;;;10.68;7.32;;;17.00;99.90;;;;;;5102404;28;20052;-67
2022/08/12 03:12:39;;;;;;;11.73;7.40;;;16.90;99.90;;;;;;5116861;28;20050;-68
2022/08/12 03:15:11;;;;;;;12.38;7.03;;;17.00;99.90;;;;;;5115672;28;20042;-67
2022/08/12 03:17:42;;;;;;;11.57;7.57;;;17.00;99.90;;;;;;5094227;27;20062;-68
2022/08/12 03:20:15;;;;;;;10.40;7.18;;;17.00;99.90;;;;;;5110181;28;20116;-67
2022/08/12 03:22:43;;;;;;;10.05;7.40;;;16.90;99.90;;;;;;5104246;27;20447;-69
2022/08/12 03:25:15;;;;;;;10.45;8.60;;;16.90;99.90;;;;;;5102030;28;20051;-67
2022/08/12 03:27:54;;;;;;;12.52;8.00;;;17.00;99.90;;;;;;5085618;28;20104;-67
2022/08/12 03:30:31;;;;;;;10.50;7.60;;;17.00;99.90;;;;;;5090185;28;20044;-67
2022/08/12 03:33:01;;;;;;;13.50;7.88;;;17.00;99.90;;;;;;5103260;28;20047;-67
2022/08/12 03:35:32;;;;;;;12.07;8.48;;;17.00;99.90;;;;;;5100169;28;20050;-67
2022/08/12 03:38:04;;;;;;;;;;;17.00;99.90;;;;;;5074945;28;20062;-67
2022/08/12 04:00:22;;;;;;;12.43;8.43;;;16.70;99.90;;;;;;5113461;28;20575;-67
2022/08/12 04:02:54;;;;;;;11.80;8.35;;;16.70;99.90;;;;;;5125252;27;20379;-67
2022/08/12 04:05:20;;;;;;;9.85;8.50;;;16.70;99.90;;;;;;5112096;28;20057;-67
2022/08/12 04:07:47;;;;;;;9.55;8.52;;;16.60;99.90;;;;;;5091314;28;20513;-68
2022/08/12 04:10:13;;;;;;;13.10;8.75;;;16.60;99.90;;;;;;5093085;28;20043;-68
2022/08/12 04:15:26;;;;;;;12.00;8.57;;;16.50;99.90;;;;;;5102890;28;20055;-68
2022/08/12 04:17:52;;;;;;;10.40;7.78;;;16.50;99.90;;;;;;5082182;28;20050;-68
2022/08/12 04:20:20;;;;;;;12.70;8.35;;;16.50;99.90;;;;;;5128353;27;20042;-68
2022/08/12 04:22:46;;;;;;;11.07;8.27;;;16.40;99.90;;;;;;5125233;27;20118;-68
2022/08/12 04:25:12;;;;;;;13.00;8.38;;;16.50;99.90;;;;;;5099950;28;20652;-68
2022/08/12 04:27:39;;;;;;;11.15;8.45;;;16.50;99.90;;;;;;5096068;28;20079;-68
2022/08/12 04:30:06;;;;;;;10.52;8.00;;;16.60;99.90;;;;;;5112734;28;20050;-68
2022/08/12 04:32:34;;;;;;;11.43;8.48;;;16.60;99.90;;;;;;5109981;28;20051;-68
2022/08/12 04:35:00;;;;;;;8.63;7.75;;;16.60;99.90;;;;;;5108800;28;20643;-68
2022/08/12 04:37:26;;;;;;;10.60;7.95;;;16.60;99.90;;;;;;5095583;28;20035;-67
2022/08/12 04:39:52;;;;;;;12.10;8.43;;;16.60;99.90;;;;;;5111650;28;20070;-68
2022/08/12 04:42:18;;;;;;;14.10;8.40;;;16.60;99.90;;;;;;5112282;28;20075;-68
2022/08/12 04:44:44;;;;;;;10.25;7.30;;;16.60;99.90;;;;;;5092773;28;20092;-68
2022/08/12 04:47:15;;;;;;;11.07;7.80;;;16.60;99.90;;;;;;5086355;28;20043;-67
2022/08/12 04:49:43;;;;;;;10.95;7.65;;;16.60;99.90;;;;;;5111112;28;20047;-68
2022/08/12 04:52:09;;;;;;;9.80;7.60;;;16.60;99.90;;;;;;5110560;27;20035;-68
2022/08/12 04:54:35;;;;;;;11.25;8.13;;;16.70;99.90;;;;;;5098611;28;20539;-68
2022/08/12 04:57:01;;;;;;;11.15;7.53;;;16.70;99.90;;;;;;5097148;28;20039;-69
2022/08/12 04:59:26;;;;;;;9.10;7.20;;;16.70;99.90;;;;;;5111257;27;20554;-67
2022/08/12 05:01:52;;;;;;;9.65;7.53;;;16.80;99.90;;;;;;5101335;28;20044;-68
2022/08/12 05:04:24;;;;;;;10.02;7.55;;;16.80;99.90;;;;;;5094085;28;20559;-67
2022/08/12 05:06:50;;;;;;;9.15;7.70;;;16.80;99.90;;;;;;5083158;28;20497;-68
2022/08/12 05:09:16;;;;;;;11.45;7.60;;;16.80;99.90;;;;;;5109138;28;20047;-68
2022/08/12 05:11:42;;;;;;;8.00;6.90;;;16.90;99.90;;;;;;5120526;27;20051;-68
2022/08/12 05:14:09;;;;;;;10.93;7.25;;;16.90;99.90;;;;;;5094759;27;20057;-68
2022/08/12 05:16:36;;;;;;;10.52;7.05;;;17.00;99.90;;;;;;5083896;28;20052;-69
2022/08/12 05:19:02;;;;;;;11.80;7.85;;;17.00;99.90;;;;;;5089276;28;20040;-68
2022/08/12 05:21:27;;;;;;;10.02;6.93;;;17.10;99.90;;;;;;5086196;28;20127;-69
2022/08/12 05:23:53;;;;;;;10.20;6.65;;;17.10;99.90;;;;;;5111117;28;20118;-68
2022/08/12 05:26:19;;;;;;;10.18;6.95;;;17.20;99.90;;;;;;5087519;28;20044;-67
2022/08/12 05:28:45;;;;;;;9.52;7.05;;;17.20;99.90;;;;;;5086334;28;20036;-68
2022/08/12 05:31:11;;;;;;;9.65;6.65;;;17.30;99.90;;;;;;5091545;28;20405;-68
2022/08/12 05:33:38;;;;;;;8.00;7.20;;;17.50;99.90;;;;;;5108852;27;20418;-68
2022/08/12 05:36:12;;;;;;;8.30;6.93;;;17.70;99.90;;;;;;5128790;27;20044;-67
2022/08/12 05:38:57;;;;;;;9.77;7.18;;;17.90;99.90;;;;;;5125733;27;20043;-67
2022/08/12 05:41:27;;;;;;;8.38;6.40;;;18.00;99.90;;;;;;5132227;27;20110;-67
2022/08/12 05:43:59;;;;;;;10.13;6.90;;;18.20;99.90;;;;;;5119527;27;20051;-68
2022/08/12 05:46:26;;;;;;;9.05;6.00;;;18.40;99.90;;;;;;5102543;27;20379;-67
2022/08/12 05:48:53;;;;;;;8.52;6.38;;;18.60;99.90;;;;;;5115503;27;20051;-68
2022/08/12 05:51:23;;;;;;;8.98;6.50;;;18.80;99.90;;;;;;5111514;28;20047;-68
2022/08/12 05:53:51;;;;;;;7.38;6.65;;;19.00;99.90;;;;;;5122391;27;20508;-68
2022/08/12 05:56:21;;;;;;;10.48;6.38;;;19.10;99.90;;;;;;5117599;27;20075;-68
2022/08/12 05:58:47;;;;;;;7.15;6.45;;;19.20;99.90;;;;;;5106123;27;20043;-69
2022/08/12 06:01:13;;;;;;;9.35;6.13;;;19.40;99.90;;;;;;5131099;27;20405;-68
2022/08/12 06:03:40;;;;;;;10.65;6.35;;;19.50;99.90;;;;;;5117655;27;20043;-68
2022/08/12 06:06:07;;;;;;;7.90;5.75;;;19.70;99.90;;;;;;5117338;27;20376;-72
2022/08/12 06:08:36;;;;;;;8.70;5.70;;;19.70;99.90;;;;;;5120148;27;20047;-68
2022/08/12 06:11:03;;;;;;;9.73;5.65;;;20.00;99.90;;;;;;5128695;27;20146;-68
2022/08/12 06:13:30;;;;;;;10.10;5.82;;;20.00;99.90;;;;;;5114977;27;20054;-68
2022/08/12 06:15:56;;;;;;;7.55;5.35;;;20.10;99.90;;;;;;5098144;28;20052;-68
2022/08/12 06:18:22;;;;;;;7.57;5.28;;;20.10;99.90;;;;;;5094523;28;20464;-68
2022/08/12 06:20:48;;;;;;;11.38;5.22;;;20.10;99.90;;;;;;5109635;28;20056;-68
2022/08/12 06:23:14;;;;;;;9.77;5.38;;;20.40;99.90;;;;;;5110036;28;20108;-67
2022/08/12 06:25:42;;;;;;;7.97;5.15;;;20.40;99.90;;;;;;5109371;28;20047;-67
2022/08/12 06:28:18;;;;;;;8.43;5.32;;;20.60;99.90;;;;;;5110303;27;20118;-69
2022/08/12 06:30:45;;;;;;;5.65;5.05;;;20.60;99.90;;;;;;5131415;27;20079;-67
2022/08/12 06:33:12;;;;;;;8.82;4.68;;;20.60;99.90;;;;;;5130960;27;20071;-69
2022/08/12 06:35:41;;;;;;;6.10;4.35;;;20.60;99.90;;;;;;5127260;27;20072;-68
2022/08/12 06:38:24;;;;;;;7.70;4.53;;;20.80;99.90;;;;;;5114207;27;20051;-68
2022/08/12 06:43:40;;;;;;;6.40;4.10;;;20.80;99.90;;;;;;5109895;28;20123;-69
2022/08/12 06:46:06;;;;;;;7.63;4.35;;;21.00;99.90;;;;;;5109571;28;20043;-73
2022/08/12 06:48:33;;;;;;;5.68;4.20;;;21.20;99.90;;;;;;5119257;27;20051;-67
2022/08/12 06:51:01;;;;;;;4.85;3.70;;;21.40;99.90;;;;;;5129267;28;20043;-69
2022/08/12 06:53:28;;;;;;;6.65;4.00;;;21.40;99.90;;;;;;5109818;27;20051;-68
2022/08/12 06:55:53;;;;;;;6.30;3.95;;;21.40;99.90;;;;;;5110497;28;20048;-68
2022/08/12 06:58:20;;;;;;;7.00;3.92;;;21.60;99.90;;;;;;5093270;28;20411;-68
2022/08/12 07:00:49;;;;;;;6.30;3.90;;;21.60;99.90;;;;;;5113491;28;20036;-68
2022/08/12 07:03:28;;;;;;;5.35;3.60;;;21.70;99.90;;;;;;5129812;27;20055;-69
2022/08/12 07:05:56;;;;;;;5.63;3.58;;;21.70;99.90;;;;;;5110990;28;20048;-68
2022/08/12 07:08:28;;;;;;;4.45;3.55;;;21.80;99.90;;;;;;5094324;28;20039;-68
2022/08/12 07:10:58;;;;;;;7.70;3.75;;;21.70;99.90;;;;;;5114006;28;20043;-68
2022/08/12 07:13:37;;;;;;;5.90;3.63;;;21.80;99.90;;;;;;5109726;27;20040;-68
2022/08/12 07:16:06;;;;;;;3.97;3.58;;;21.60;99.90;;;;;;5115841;28;20097;-68
2022/08/12 07:18:32;;;;;;;7.97;3.80;;;21.80;99.90;;;;;;5097299;28;20610;-68
2022/08/12 07:21:02;;;;;;;6.72;3.70;;;21.80;99.90;;;;;;5109559;28;20036;-68
2022/08/12 07:23:32;;;;;;;7.30;3.70;;;21.80;99.90;;;;;;5126748;27;20058;-69
2022/08/12 07:26:00;;;;;;;5.30;3.65;;;22.00;99.90;;;;;;5121086;28;20040;-68
2022/08/12 07:28:29;;;;;;;8.70;3.78;;;22.10;99.90;;;;;;5102114;27;20057;-69
2022/08/12 07:30:56;;;;;;;4.85;2.67;;;22.10;99.90;;;;;;5118748;28;20054;-69
2022/08/12 07:33:26;;;;;;;2.92;2.40;;;22.30;99.90;;;;;;5108511;27;20491;-69
2022/08/12 07:35:54;;;;;;;5.13;2.88;;;22.30;99.90;;;;;;5102726;28;20051;-69
2022/08/12 07:38:24;;;;;;;4.45;2.65;;;22.30;99.90;;;;;;5088897;28;20416;-68
2022/08/12 07:41:10;;;;;;;7.30;3.08;;;22.30;99.90;;;;;;5104237;28;20063;-69
2022/08/12 07:43:38;;;;;;;4.25;2.40;;;22.40;99.90;;;;;;5102616;28;20071;-68
2022/08/12 07:46:07;;;;;;;5.18;2.30;;;22.40;99.90;;;;;;5101541;28;20130;-69
2022/08/12 07:48:45;;;;;;;6.28;2.60;;;22.50;99.90;;;;;;5105018;27;20070;-69
2022/08/12 07:51:12;;;;;;;7.53;2.67;;;22.40;99.90;;;;;;5119581;27;20398;-71
2022/08/12 07:53:39;;;;;;;4.22;2.50;;;22.50;99.90;;;;;;5121650;27;20603;-69
2022/08/12 07:56:08;;;;;;;7.85;2.60;;;22.60;99.90;;;;;;5120313;27;20078;-68
2022/08/12 07:58:38;;;;;;;7.43;2.65;;;22.70;99.90;;;;;;5112485;27;20114;-72
2022/08/12 08:01:04;;;;;;;6.00;2.90;;;22.80;99.90;;;;;;5121682;27;20123;-69
2022/08/12 08:03:30;;;;;;;5.68;2.78;;;22.90;99.90;;;;;;5123089;27;20043;-69
2022/08/12 08:05:57;;;;;;;4.60;3.00;;;23.00;99.90;;;;;;5119694;27;20084;-70
2022/08/12 08:08:27;;;;;;;6.57;2.90;;;23.00;99.90;;;;;;5105318;27;20490;-70
2022/08/12 08:13:45;;;;;;;5.00;2.33;;;23.20;99.90;;;;;;5081724;28;20044;-71
2022/08/12 08:16:14;;;;;;;4.97;2.30;;;23.30;99.90;;;;;;5095198;28;20046;-69
2022/08/12 08:18:40;;;;;;;5.30;2.60;;;23.40;99.90;;;;;;5094807;28;20055;-70
2022/08/12 08:21:07;;;;;;;7.28;2.40;;;23.40;99.90;;;;;;5106776;28;20157;-68
2022/08/12 08:26:21;;;;;;;5.80;2.40;;;23.50;99.90;;;;;;5092100;28;20051;-69
2022/08/12 08:28:47;;;;;;;5.68;2.15;;;23.50;99.90;;;;;;5100489;28;20051;-69
2022/08/12 08:31:13;;;;;;;3.63;2.22;;;23.60;99.90;;;;;;5100964;28;20046;-69
2022/08/12 08:33:40;;;;;;;8.15;3.00;;;23.70;99.90;;;;;;5100672;28;20409;-68
2022/08/12 08:36:08;;;;;;;5.85;2.72;;;23.80;99.90;;;;;;5104071;28;20131;-73
2022/08/12 08:38:34;;;;;;;8.32;2.45;;;23.80;99.90;;;;;;5100385;28;20571;-70
2022/08/12 08:43:44;;;;;;;4.07;2.70;;;23.90;99.90;;;;;;5099439;28;20510;-69
2022/08/12 08:46:10;;;;;;;3.35;2.17;;;24.00;99.90;;;;;;5087451;28;20047;-73
2022/08/12 08:48:36;;;;;;;5.88;3.55;;;24.10;99.90;;;;;;5117341;27;20047;-71
2022/08/12 08:51:04;;;;;;;5.82;2.50;;;24.30;99.90;;;;;;5125054;27;20035;-70
2022/08/12 08:53:29;;;;;;;6.03;2.33;;;24.40;99.90;;;;;;5119921;27;20043;-71
2022/08/12 08:55:55;;;;;;;6.82;2.60;;;24.40;99.90;;;;;;5117453;27;20035;-69
2022/08/12 08:58:21;;;;;;;7.38;2.80;;;24.50;99.90;;;;;;5088504;27;20054;-70
2022/08/12 09:00:50;;;;;;;5.68;2.38;;;24.60;99.90;;;;;;5096848;28;20051;-69
2022/08/12 09:03:17;;;;;;;11.80;3.05;;;24.80;99.90;;;;;;5102007;28;20134;-69
2022/08/12 09:05:45;;;;;;;6.75;2.70;;;24.90;99.90;;;;;;5096466;28;20044;-73
2022/08/12 09:08:12;;;;;;;3.38;2.45;;;25.00;99.90;;;;;;5084791;28;20039;-72
2022/08/12 09:10:38;;;;;;;6.45;2.80;;;25.10;99.90;;;;;;5102168;28;20044;-70
2022/08/12 09:15:50;;;;;;;8.88;2.13;;;25.30;99.90;;;;;;5100607;28;20048;-69
2022/08/12 09:18:17;;;;;;;5.68;2.08;;;25.40;99.90;;;;;;5083446;28;20035;-70
2022/08/12 09:20:43;;;;;;;5.25;2.00;;;25.70;99.90;;;;;;5099137;28;20054;-73
2022/08/12 09:23:11;;;;;;;9.05;2.10;;;25.70;99.90;;;;;;5074176;28;20122;-70
2022/08/12 09:25:38;;;;;;;5.93;1.80;;;25.70;99.90;;;;;;5095900;28;20056;-70
2022/08/12 09:28:07;;;;;;;3.55;2.13;;;25.80;99.90;;;;;;5080051;28;20119;-70
2022/08/12 09:30:33;;;;;;;6.20;2.15;;;25.80;99.90;;;;;;5097661;28;20042;-70
2022/08/12 09:32:59;;;;;;;6.32;2.22;;;25.90;99.90;;;;;;5098491;28;20555;-69
2022/08/12 09:35:30;;;;;;;6.85;1.92;;;25.90;99.90;;;;;;5110687;28;20047;-70
2022/08/12 09:37:56;;;;;;;9.52;2.25;;;26.10;99.90;;;;;;5125729;27;20036;-71
2022/08/12 09:40:24;;;;;;;6.28;1.60;;;26.00;99.90;;;;;;5111213;28;20494;-70
2022/08/12 09:45:48;;;;;;;5.93;1.60;;;26.10;99.90;;;;;;5038630;28;20407;-71
2022/08/12 09:48:19;;;;;;;5.35;2.08;;;26.30;99.50;;;;;;5097735;27;20123;-70
2022/08/12 09:50:49;;;;;;;6.15;1.77;;;26.30;99.90;;;;;;5118761;27;20104;-71
2022/08/12 09:53:23;;;;;;;6.15;1.95;;;26.40;98.90;;;;;;5117240;27;20078;-70
2022/08/12 09:55:55;;;;;;;7.70;2.05;;;26.30;99.00;;;;;;5116828;27;20104;-70
2022/08/12 09:58:28;;;;;;;3.88;2.00;;;26.50;99.90;;;;;;5096484;27;20055;-71
2022/08/12 10:01:01;;;;;;;5.22;2.00;;;26.50;99.90;;;;;;5101660;28;20047;-70
2022/08/12 10:03:30;;;;;;;2.38;1.73;;;26.60;98.00;;;;;;5098929;28;20047;-72
2022/08/12 10:05:57;;;;;;;8.50;2.13;;;26.70;99.40;;;;;;5102393;28;20042;-70
2022/08/12 10:08:29;;;;;;;5.55;2.00;;;26.80;98.10;;;;;;5085619;28;20073;-70
2022/08/12 10:13:47;;;;;;;7.50;1.80;;;26.80;97.00;;;;;;5102077;28;20074;-69
2022/08/12 10:16:18;;;;;;;5.60;1.80;;;26.80;97.60;;;;;;5091231;28;20494;-71
2022/08/12 10:18:44;;;;;;;;;;;26.80;96.60;;;;;;5110464;27;20477;-70
2022/08/12 10:21:13;;;;;;;4.65;1.73;;;26.90;94.70;;;;;;5118452;27;19931;-70
2022/08/12 10:23:41;;;;;;;4.85;1.60;;;27.00;96.00;;;;;;5122280;27;20553;-71
2022/08/12 10:35:42;;;;;;;5.10;2.03;;;27.20;94.00;;;;;;5093778;28;20537;-70
2022/08/12 10:38:10;;;;;;;9.57;1.50;;;27.30;90.00;;;;;;5080435;28;20068;-69
2022/08/12 10:43:39;;;;;;;6.57;1.73;;;27.30;90.80;;;;;;5085344;28;20048;-71
2022/08/12 10:43:41;;;;;;;2.55;1.40;;;27.50;90.50;;;;;;5096525;28;20092;-70
2022/08/12 10:46:16;;;;;;;2.13;1.52;;;27.60;89.00;;;;;;5098074;28;20380;-71
2022/08/12 10:48:46;;;;;;;3.88;1.40;;;27.50;80.70;;;;;;5096573;28;20133;-70
2022/08/12 10:51:13;;;;;;;2.95;1.30;;;27.50;79.90;;;;;;5099353;28;20032;-69
2022/08/12 10:53:42;;;;;;;3.20;1.55;;;27.40;77.80;;;;;;5111491;28;20047;-71
2022/08/12 10:56:10;;;;;;;2.90;1.60;;;27.50;78.00;;;;;;5109911;28;20042;-72
2022/08/12 10:58:39;;;;;;;4.43;1.55;;;27.50;76.20;;;;;;5112197;28;20047;-70
2022/08/12 11:01:09;;;;;;;6.45;1.27;;;27.60;75.00;;;;;;5118707;28;20402;-69
2022/08/12 11:03:38;;;;;;;2.65;1.35;;;27.60;72.70;;;;;;5117844;27;20058;-69
2022/08/12 11:06:10;;;;;;;2.97;1.60;;;27.60;74.50;;;;;;5117751;27;20077;-68
2022/08/12 11:08:39;;;;;;;6.00;1.50;;;27.70;74.00;;;;;;5112638;27;20039;-69
2022/08/12 11:11:07;;;;;;;4.53;1.60;;;27.70;75.50;;;;;;5119843;27;20042;-69
2022/08/12 11:13:36;;;;;;;3.85;1.63;;;27.60;74.20;;;;;;5121797;27;20105;-69
2022/08/12 11:16:05;;;;;;;5.43;1.58;;;27.70;76.60;;;;;;5120624;27;20491;-69
2022/08/12 11:18:31;;;;;;;5.03;1.20;;;27.70;75.30;;;;;;5104820;27;20043;-69
2022/08/12 11:20:58;;;;;;;5.25;1.48;;;27.80;75.90;;;;;;5122646;27;20552;-69
2022/08/12 11:23:24;;;;;;;3.83;1.27;;;27.80;76.70;;;;;;5121210;27;20059;-68
2022/08/12 11:25:50;;;;;;;5.90;1.38;;;27.80;76.20;;;;;;5127339;27;20567;-69
2022/08/12 11:28:17;;;;;;;2.08;1.35;;;27.90;76.60;;;;;;5106109;27;20096;-69
2022/08/12 11:30:43;;;;;;;3.58;1.50;;;27.90;76.90;;;;;;5122320;27;20130;-69
2022/08/12 11:33:10;;;;;;;2.10;1.50;;;27.90;75.10;;;;;;5121851;27;20032;-69
2022/08/12 11:35:35;;;;;;;5.13;1.40;;;27.80;74.80;;;;;;5120614;27;20063;-69
2022/08/12 11:38:02;;;;;;;6.75;1.65;;;27.90;73.80;;;;;;5104888;27;20051;-69
2022/08/12 11:40:28;;;;;;;6.22;1.50;;;27.90;72.50;;;;;;5122708;27;20031;-69
2022/08/12 11:42:55;;;;;;;2.88;1.30;;;27.90;72.50;;;;;;5115935;27;20039;-71
2022/08/12 11:45:21;;;;;;;1.67;1.25;;;28.00;72.50;;;;;;5103862;28;20043;-70
2022/08/12 11:47:46;;;;;;;3.53;1.30;;;28.00;71.10;;;;;;5088623;28;20418;-72
2022/08/12 11:50:12;;;;;;;2.05;1.40;;;28.00;70.70;;;;;;5107207;28;20039;-71
2022/08/12 11:52:38;;;;;;;1.30;1.00;;;28.10;70.30;;;;;;5103577;27;20147;-69
2022/08/12 11:55:04;;;;;;;3.03;1.40;;;28.10;71.40;;;;;;5100069;28;20073;-70
2022/08/12 11:57:30;;;;;;;4.20;1.50;;;28.10;70.90;;;;;;5088628;27;20545;-70
2022/08/12 11:59:56;;;;;;;4.68;1.73;;;28.10;73.50;;;;;;5123067;27;20038;-70
2022/08/12 12:02:22;;;;;;;6.22;1.52;;;28.20;74.70;;;;;;5115357;27;20477;-70
2022/08/12 12:04:50;;;;;;;2.72;1.60;;;28.30;73.50;;;;;;5101609;28;20047;-70
2022/08/12 12:07:16;;;;;;;7.93;1.42;;;28.20;75.20;;;;;;5083121;28;20048;-70
2022/08/12 12:09:42;;;;;;;4.20;1.30;;;28.30;73.70;;;;;;5101090;28;20043;-71
2022/08/12 12:12:08;;;;;;;5.10;1.60;;;28.30;74.80;;;;;;5101367;27;20046;-71
2022/08/12 12:14:33;;;;;;;3.03;1.33;;;28.30;73.60;;;;;;5102830;28;20040;-71
2022/08/12 12:16:59;;;;;;;3.10;1.60;;;28.40;74.30;;;;;;5086006;28;20040;-70
2022/08/12 12:19:25;;;;;;;5.15;1.50;;;28.40;73.90;;;;;;5099288;28;20414;-70
2022/08/12 12:21:50;;;;;;;4.65;1.48;;;28.50;72.70;;;;;;5103891;28;20055;-71
2022/08/12 12:24:17;;;;;;;3.92;1.30;;;28.50;72.20;;;;;;5120475;27;20053;-72
2022/08/12 12:26:42;;;;;;;4.10;1.05;;;28.50;71.30;;;;;;5108046;27;20036;-70
2022/08/12 12:29:08;;;;;;;3.88;1.63;;;28.50;68.90;;;;;;5107173;27;20047;-70
2022/08/12 12:31:33;;;;;;;2.72;1.25;;;28.40;69.30;;;;;;5105127;28;20036;-70
2022/08/12 12:33:59;;;;;;;4.53;1.40;;;28.40;69.50;;;;;;5105049;28;20638;-70
2022/08/12 12:36:25;;;;;;;2.63;1.10;;;28.40;70.00;;;;;;5092348;28;20125;-71
2022/08/12 12:38:51;;;;;;;5.10;1.40;;;28.50;71.10;;;;;;5097822;28;20036;-71
2022/08/12 12:41:17;;;;;;;2.55;1.20;;;28.50;68.10;;;;;;5103215;28;20052;-71
2022/08/12 12:43:43;;;;;;;5.15;1.38;;;28.60;68.40;;;;;;5104658;28;20043;-71
2022/08/12 12:46:08;;;;;;;3.95;1.10;;;28.60;67.90;;;;;;5097985;28;20499;-73
2022/08/12 12:48:34;;;;;;;2.83;1.00;;;28.50;67.00;;;;;;5095138;28;20108;-72
2022/08/12 12:51:15;;;;;;;3.00;1.30;;;28.60;69.60;;;;;;5100800;28;20051;-71
2022/08/12 12:53:44;;;;;;;5.35;1.00;;;28.60;75.90;;;;;;5088050;28;20055;-72
2022/08/12 12:56:19;;;;;;;6.68;1.73;;;28.70;72.20;;;;;;5098095;28;20055;-72
2022/08/12 12:58:52;;;;;;;4.55;1.73;;;28.80;76.30;;;;;;5096573;28;20135;-71
2022/08/12 13:01:24;;;;;;;3.00;1.60;;;28.80;77.70;;;;;;5103876;28;20124;-71
2022/08/12 13:03:53;;;;;;;5.00;1.88;;;28.90;80.00;;;;;;5101983;28;20138;-70
2022/08/12 13:06:28;;;;;;;6.45;1.98;;;28.90;81.80;;;;;;5092715;28;20318;-70
2022/08/12 13:09:00;;;;;;;2.92;1.30;;;28.90;81.60;;;;;;5096827;28;20160;-69
2022/08/12 13:11:28;;;;;;;3.00;1.40;;;28.80;76.90;;;;;;5104796;28;20508;-69
2022/08/12 13:13:55;;;;;;;6.57;1.30;;;28.90;77.50;;;;;;5102549;27;20052;-84
2022/08/12 13:16:22;;;;;;;2.60;1.30;;;28.90;76.30;;;;;;5092765;28;20042;-79
2022/08/12 13:18:49;;;;;;;3.67;1.60;;;29.00;78.80;;;;;;5101584;27;20051;-78
2022/08/12 13:21:16;;;;;;;4.40;1.55;;;29.00;80.70;;;;;;5121013;27;20035;-75
2022/08/12 13:23:49;;;;;;;2.10;1.40;;;29.00;80.40;;;;;;5109410;27;20506;-80
2022/08/12 13:26:16;;;;;;;4.75;1.48;;;29.00;80.30;;;;;;5095355;28;20059;-84
2022/08/12 13:28:49;;;;;;;2.85;1.50;;;29.00;74.10;;;;;;5100063;28;20047;-75
2022/08/12 13:31:15;;;;;;;4.72;1.35;;;29.00;77.70;;;;;;5103330;28;20059;-78
2022/08/12 13:33:41;;;;;;;6.00;1.73;;;29.00;78.40;;;;;;5102008;28;20063;-80
2022/08/12 13:36:09;;;;;;;5.50;1.75;;;28.90;77.20;;;;;;5098552;28;20058;-81
2022/08/12 13:38:37;;;;;;;6.50;1.20;;;29.00;78.10;;;;;;5094614;28;20116;-77
2022/08/12 13:41:06;;;;;;;2.33;1.40;;;28.90;78.50;;;;;;5104983;28;20043;-70
2022/08/12 13:43:32;;;;;;;8.85;1.90;;;29.00;79.00;;;;;;5100997;28;20036;-79
2022/08/12 13:46:01;;;;;;;5.70;1.50;;;28.90;79.10;;;;;;5100761;28;20062;-79
2022/08/12 13:48:28;;;;;;;2.90;1.20;;;29.00;79.40;;;;;;5067425;28;20043;-80
2022/08/12 13:50:56;;;;;;;3.38;1.48;;;29.00;79.20;;;;;;5100641;28;20043;-81
2022/08/12 13:53:22;;;;;;;3.28;1.30;;;29.00;79.10;;;;;;5101197;28;20476;-77
2022/08/12 13:55:50;;;;;;;4.68;1.42;;;29.10;80.40;;;;;;5100281;28;20055;-81
2022/08/12 13:58:18;;;;;;;8.48;1.90;;;29.10;79.70;;;;;;5011323;28;20039;-80
2022/08/12 14:00:45;;;;;;;9.02;1.70;;;29.00;80.30;;;;;;5081528;28;20498;-82
2022/08/12 14:03:15;;;;;;;4.63;1.73;;;29.00;80.40;;;;;;5101617;28;20084;-84
2022/08/12 14:05:41;;;;;;;3.85;1.50;;;29.00;79.70;;;;;;5100369;28;20109;-81
2022/08/12 14:08:15;;;;;;;4.15;1.40;;;29.00;78.80;;;;;;5091220;27;20048;-83
2022/08/12 14:10:52;;;;;;;5.55;1.67;;;29.00;80.40;;;;;;5098275;27;20470;-79
2022/08/12 14:13:28;;;;;;;6.03;1.77;;;29.10;80.40;;;;;;5112377;27;20140;-77
2022/08/12 14:15:59;;;;;;;4.28;1.35;;;29.10;79.40;;;;;;5104521;28;20054;-84
2022/08/12 14:18:37;;;;;;;3.60;1.73;;;29.30;80.70;;;;;;5078872;28;20816;-82
2022/08/12 14:21:08;;;;;;;4.97;1.65;;;29.30;80.10;;;;;;5091020;28;20031;-82
2022/08/12 14:23:41;;;;;;;2.78;1.48;;;29.30;80.70;;;;;;5094925;28;20117;-82
2022/08/12 14:26:12;;;;;;;4.00;1.70;;;29.30;81.40;;;;;;5095481;28;20054;-79
2022/08/12 14:28:39;;;;;;;9.25;1.67;;;29.40;81.00;;;;;;5087522;28;20047;-81
2022/08/12 14:31:11;;;;;;;2.90;1.50;;;29.40;80.30;;;;;;5094680;28;20043;-79
2022/08/12 14:33:37;;;;;;;8.13;1.80;;;29.40;78.60;;;;;;5095231;28;20047;-84
2022/08/12 14:36:05;;;;;;;3.13;1.42;;;29.50;78.20;;;;;;5096760;28;20499;-83
2022/08/12 14:38:38;;;;;;;7.68;1.80;;;29.50;79.30;;;;;;5079844;28;20411;-84
2022/08/12 14:41:09;;;;;;;3.17;1.50;;;29.60;79.80;;;;;;5100132;28;20052;-83
2022/08/12 14:43:38;;;;;;;4.82;1.50;;;29.50;77.80;;;;;;5099855;28;20043;-84
2022/08/12 14:46:06;;;;;;;3.88;1.60;;;29.60;78.30;;;;;;5096174;28;20047;-82